createdAt,value
2018-07-05T00:00:25.640Z,64.07
2018-07-05T00:01:25.605Z,64.36
2018-07-05T00:02:25.567Z,63.39
2018-07-05T00:03:25.531Z,63.49
2018-07-05T00:04:25.485Z,63.68
2018-07-05T00:05:25.446Z,64.07
2018-07-05T00:06:25.403Z,64.26
2018-07-05T00:07:25.366Z,64.26
2018-07-05T00:08:25.324Z,63.98
2018-07-05T00:09:25.287Z,63.88
2018-07-05T00:10:25.252Z,63.59
2018-07-05T00:11:25.213Z,63.98
2018-07-05T00:12:25.165Z,63.78
2018-07-05T00:13:25.130Z,64.46
2018-07-05T00:14:25.094Z,64.46
2018-07-05T00:15:25.049Z,64.36
2018-07-05T00:16:25.011Z,63.98
2018-07-05T00:17:24.973Z,64.26
2018-07-05T00:18:24.931Z,64.36
2018-07-05T00:19:24.893Z,64.56
2018-07-05T00:20:24.852Z,64.17
2018-07-05T00:21:24.813Z,64.26
2018-07-05T00:22:24.775Z,64.17
2018-07-05T00:23:24.736Z,64.07
2018-07-05T00:24:24.690Z,64.36
2018-07-05T00:25:24.656Z,64.17
2018-07-05T00:26:24.615Z,64.65
2018-07-05T00:27:24.576Z,64.26
2018-07-05T00:28:24.534Z,64.65
2018-07-05T00:29:24.497Z,64.46
2018-07-05T00:30:24.459Z,64.26
2018-07-05T00:31:24.418Z,64.26
2018-07-05T00:32:24.395Z,64.56
2018-07-05T00:33:24.341Z,64.56
2018-07-05T00:34:24.298Z,64.56
2018-07-05T00:35:24.260Z,64.36
2018-07-05T00:36:24.222Z,64.56
2018-07-05T00:37:24.187Z,64.75
2018-07-05T00:38:24.142Z,65.14
2018-07-05T00:39:24.103Z,64.46
2018-07-05T00:40:24.065Z,65.24
2018-07-05T00:41:24.020Z,65.14
2018-07-05T00:42:23.984Z,64.75
2018-07-05T00:43:23.949Z,64.75
2018-07-05T00:44:23.904Z,64.65
2018-07-05T00:45:23.866Z,64.65
2018-07-05T00:46:23.817Z,64.26
2018-07-05T00:47:23.792Z,64.75
2018-07-05T00:48:23.744Z,64.46
2018-07-05T00:49:23.705Z,65.24
2018-07-05T00:50:23.669Z,64.56
2018-07-05T00:51:23.633Z,65.14
2018-07-05T00:52:23.582Z,64.56
2018-07-05T00:53:23.550Z,64.36
2018-07-05T00:54:23.512Z,64.07
2018-07-05T00:55:23.470Z,64.26
2018-07-05T00:56:23.432Z,64.56
2018-07-05T00:57:23.390Z,64.95
2018-07-05T00:58:23.358Z,64.07
2018-07-05T00:59:23.310Z,64.95
2018-07-05T01:00:23.279Z,64.36
2018-07-05T01:01:23.240Z,64.36
2018-07-05T01:02:23.199Z,64.17
2018-07-05T01:03:23.161Z,64.46
2018-07-05T01:04:23.115Z,64.17
2018-07-05T01:05:23.078Z,64.65
2018-07-05T01:06:23.036Z,64.36
2018-07-05T01:07:22.998Z,64.26
2018-07-05T01:08:22.956Z,64.36
2018-07-05T01:09:22.918Z,64.07
2018-07-05T01:10:22.880Z,64.26
2018-07-05T01:11:22.842Z,65.05
2018-07-05T01:12:22.800Z,64.46
2018-07-05T01:13:22.759Z,64.46
2018-07-05T01:14:22.720Z,64.07
2018-07-05T01:15:22.681Z,65.05
2018-07-05T01:16:22.642Z,64.36
2018-07-05T01:17:22.600Z,64.07
2018-07-05T01:18:22.559Z,64.26
2018-07-05T01:19:22.524Z,64.46
2018-07-05T01:20:22.498Z,64.56
2018-07-05T01:21:22.445Z,64.56
2018-07-05T01:22:22.406Z,64.46
2018-07-05T01:23:22.374Z,64.17
2018-07-05T01:24:22.326Z,64.36
2018-07-05T01:25:22.289Z,64.17
2018-07-05T01:26:22.245Z,64.46
2018-07-05T01:27:22.210Z,64.26
2018-07-05T01:28:22.175Z,64.26
2018-07-05T01:29:22.252Z,64.36
2018-07-05T01:30:22.078Z,64.65
2018-07-05T01:31:22.049Z,64.36
2018-07-05T01:32:22.011Z,64.65
2018-07-05T01:33:21.969Z,64.46
2018-07-05T01:34:21.931Z,64.26
2018-07-05T01:35:21.888Z,64.85
2018-07-05T01:36:21.853Z,64.65
2018-07-05T01:37:21.812Z,64.56
2018-07-05T01:38:21.774Z,64.56
2018-07-05T01:39:21.736Z,64.75
2018-07-05T01:40:21.693Z,64.36
2018-07-05T01:41:21.651Z,64.36
2018-07-05T01:42:21.620Z,64.26
2018-07-05T01:43:21.572Z,64.75
2018-07-05T01:44:21.537Z,64.17
2018-07-05T01:45:21.498Z,64.36
2018-07-05T01:46:21.457Z,64.56
2018-07-05T01:47:21.417Z,64.26
2018-07-05T01:48:21.376Z,64.26
2018-07-05T01:49:21.336Z,64.65
2018-07-05T01:50:21.297Z,64.95
2018-07-05T01:51:21.272Z,64.75
2018-07-05T01:52:21.218Z,64.36
2018-07-05T01:53:21.179Z,64.95
2018-07-05T01:54:21.140Z,64.85
2018-07-05T01:55:21.099Z,65.05
2018-07-05T01:56:21.062Z,64.56
2018-07-05T01:57:21.023Z,64.85
2018-07-05T01:58:20.999Z,64.65
2018-07-05T01:59:20.952Z,64.75
2018-07-05T02:00:20.914Z,64.56
2018-07-05T02:01:20.870Z,65.14
2018-07-05T02:02:20.828Z,64.95
2018-07-05T02:03:20.787Z,65.14
2018-07-05T02:04:20.748Z,65.05
2018-07-05T02:05:20.708Z,64.75
2018-07-05T02:06:20.672Z,64.65
2018-07-05T02:07:20.618Z,64.56
2018-07-05T02:08:20.592Z,64.95
2018-07-05T02:09:20.566Z,64.65
2018-07-05T02:10:20.521Z,65.05
2018-07-05T02:11:20.474Z,65.24
2018-07-05T02:12:20.430Z,64.85
2018-07-05T02:13:20.394Z,65.24
2018-07-05T02:14:20.354Z,65.33
2018-07-05T02:15:20.309Z,64.95
2018-07-05T02:16:20.271Z,64.95
2018-07-05T02:17:20.233Z,65.14
2018-07-05T02:18:20.188Z,64.65
2018-07-05T02:19:20.159Z,64.85
2018-07-05T02:20:20.127Z,63.88
2018-07-05T02:21:20.084Z,64.65
2018-07-05T02:22:20.039Z,64.46
2018-07-05T02:23:19.995Z,64.95
2018-07-05T02:24:19.959Z,64.56
2018-07-05T02:25:19.918Z,64.95
2018-07-05T02:26:19.879Z,64.85
2018-07-05T02:27:19.836Z,64.07
2018-07-05T02:28:19.798Z,64.36
2018-07-05T02:29:19.760Z,64.36
2018-07-05T02:30:19.716Z,64.56
2018-07-05T02:31:19.692Z,64.85
2018-07-05T02:32:19.637Z,64.56
2018-07-05T02:33:19.608Z,64.26
2018-07-05T02:34:19.564Z,64.36
2018-07-05T02:35:19.525Z,64.95
2018-07-05T02:36:19.563Z,64.07
2018-07-05T02:37:19.445Z,64.07
2018-07-05T02:38:19.398Z,64.17
2018-07-05T02:39:19.365Z,64.07
2018-07-05T02:40:19.321Z,63.98
2018-07-05T02:41:19.285Z,64.36
2018-07-05T02:42:19.263Z,64.95
2018-07-05T02:43:19.215Z,64.46
2018-07-05T02:44:19.174Z,64.26
2018-07-05T02:45:19.135Z,64.36
2018-07-05T02:46:19.096Z,64.17
2018-07-05T02:47:19.050Z,64.46
2018-07-05T02:48:19.016Z,64.17
2018-07-05T02:49:18.967Z,63.98
2018-07-05T02:50:18.926Z,64.26
2018-07-05T02:51:18.886Z,64.07
2018-07-05T02:52:18.851Z,64.46
2018-07-05T02:53:18.823Z,64.07
2018-07-05T02:54:18.782Z,64.56
2018-07-05T02:55:18.735Z,64.26
2018-07-05T02:56:18.691Z,64.36
2018-07-05T02:57:18.659Z,65.05
2018-07-05T02:58:18.615Z,64.75
2018-07-05T02:59:18.576Z,64.56
2018-07-05T03:00:18.532Z,64.65
2018-07-05T03:01:18.495Z,64.95
2018-07-05T03:02:18.451Z,64.36
2018-07-05T03:03:18.413Z,64.33
2018-07-05T03:04:18.386Z,64.36
2018-07-05T03:05:18.343Z,64.07
2018-07-05T03:06:18.298Z,63.98
2018-07-05T03:07:18.258Z,64.46
2018-07-05T03:08:18.223Z,63.95
2018-07-05T03:09:18.177Z,64.26
2018-07-05T03:10:18.142Z,63.98
2018-07-05T03:11:18.098Z,64.36
2018-07-05T03:12:18.057Z,64.14
2018-07-05T03:13:18.018Z,64.23
2018-07-05T03:14:17.976Z,64.26
2018-07-05T03:15:17.938Z,64.26
2018-07-05T03:16:17.901Z,64.17
2018-07-05T03:17:17.860Z,64.46
2018-07-05T03:18:17.822Z,64.26
2018-07-05T03:19:17.783Z,64.65
2018-07-05T03:20:17.741Z,64.36
2018-07-05T03:21:17.701Z,64.26
2018-07-05T03:22:17.653Z,64.17
2018-07-05T03:23:17.624Z,64.36
2018-07-05T03:24:17.582Z,64.36
2018-07-05T03:25:17.547Z,64.36
2018-07-05T03:26:17.517Z,64.36
2018-07-05T03:27:17.466Z,64.23
2018-07-05T03:28:17.424Z,64.26
2018-07-05T03:29:17.383Z,63.88
2018-07-05T03:30:17.341Z,64.36
2018-07-05T03:31:17.308Z,63.78
2018-07-05T03:32:17.266Z,63.49
2018-07-05T03:33:17.228Z,63.78
2018-07-05T03:34:17.190Z,64.36
2018-07-05T03:35:17.148Z,64.04
2018-07-05T03:36:17.120Z,63.68
2018-07-05T03:37:17.068Z,63.85
2018-07-05T03:38:17.027Z,63.95
2018-07-05T03:39:16.994Z,63.75
2018-07-05T03:40:16.940Z,63.68
2018-07-05T03:41:16.915Z,63.95
2018-07-05T03:42:16.872Z,63.78
2018-07-05T03:43:16.835Z,63.49
2018-07-05T03:44:16.783Z,63.65
2018-07-05T03:45:16.754Z,63.78
2018-07-05T03:46:16.725Z,63.49
2018-07-05T03:47:16.683Z,63.78
2018-07-05T03:48:16.634Z,63.68
2018-07-05T03:49:16.593Z,63.75
2018-07-05T03:50:16.555Z,63.88
2018-07-05T03:51:16.516Z,63.65
2018-07-05T03:52:16.477Z,64.04
2018-07-05T03:53:16.435Z,63.65
2018-07-05T03:54:16.397Z,63.59
2018-07-05T03:55:16.358Z,64.26
2018-07-05T03:56:16.319Z,64.04
2018-07-05T03:57:16.288Z,64.14
2018-07-05T03:58:16.249Z,64.23
2018-07-05T03:59:16.202Z,64.23
2018-07-05T04:00:16.160Z,64.43
2018-07-05T04:01:16.119Z,64.33
2018-07-05T04:02:16.080Z,64.46
2018-07-05T04:03:16.046Z,64.23
2018-07-05T04:04:16.003Z,64.14
2018-07-05T04:05:15.961Z,63.95
2018-07-05T04:06:15.923Z,64.82
2018-07-05T04:07:15.884Z,64.82
2018-07-05T04:08:15.868Z,64.14
2018-07-05T04:09:15.816Z,64.33
2018-07-05T04:10:15.767Z,64.23
2018-07-05T04:11:15.718Z,64.26
2018-07-05T04:12:15.685Z,64.04
2018-07-05T04:13:15.634Z,64.14
2018-07-05T04:14:15.605Z,64.33
2018-07-05T04:15:15.563Z,64.33
2018-07-05T04:16:15.521Z,64.23
2018-07-05T04:17:15.488Z,64.43
2018-07-05T04:18:15.453Z,64.17
2018-07-05T04:19:15.414Z,64.14
2018-07-05T04:20:15.379Z,63.98
2018-07-05T04:21:15.324Z,64.62
2018-07-05T04:22:15.289Z,64.23
2018-07-05T04:23:15.249Z,64.04
2018-07-05T04:24:15.205Z,64.04
2018-07-05T04:25:15.167Z,64.14
2018-07-05T04:26:15.132Z,64.23
2018-07-05T04:27:15.089Z,64.62
2018-07-05T04:28:15.054Z,64.43
2018-07-05T04:29:15.006Z,64.43
2018-07-05T04:30:14.977Z,64.33
2018-07-05T04:31:14.935Z,64.62
2018-07-05T04:32:14.892Z,64.46
2018-07-05T04:33:14.856Z,64.33
2018-07-05T04:34:14.852Z,64.43
2018-07-05T04:35:14.768Z,64.04
2018-07-05T04:36:14.735Z,64.33
2018-07-05T04:37:14.690Z,64.43
2018-07-05T04:38:14.658Z,64.33
2018-07-05T04:39:14.610Z,64.04
2018-07-05T04:40:14.575Z,64.23
2018-07-05T04:41:14.543Z,64.33
2018-07-05T04:42:14.501Z,64.43
2018-07-05T04:43:14.460Z,64.33
2018-07-05T04:44:14.409Z,64.56
2018-07-05T04:45:14.373Z,64.26
2018-07-05T04:47:14.299Z,64.23
2018-07-05T04:48:14.260Z,64.23
2018-07-05T04:49:14.219Z,63.49
2018-07-05T04:50:14.177Z,63.68
2018-07-05T04:51:14.139Z,63.75
2018-07-05T04:52:14.105Z,63.49
2018-07-05T04:53:14.061Z,64.04
2018-07-05T04:54:14.022Z,64.04
2018-07-05T04:55:13.980Z,64.04
2018-07-05T04:56:13.943Z,63.29
2018-07-05T04:57:13.901Z,63.36
2018-07-05T04:58:13.871Z,63.36
2018-07-05T04:59:13.828Z,63.36
2018-07-05T05:00:13.789Z,63.07
2018-07-05T05:01:13.744Z,63.46
2018-07-05T05:02:13.703Z,63.56
2018-07-05T05:03:13.667Z,63.46
2018-07-05T05:05:13.589Z,63.36
2018-07-05T05:06:13.550Z,63.98
2018-07-05T05:07:13.507Z,63.95
2018-07-05T05:08:13.466Z,64.26
2018-07-05T05:09:13.425Z,64.36
2018-07-05T05:10:13.387Z,64.17
2018-07-05T05:11:13.348Z,64.07
2018-07-05T05:12:13.307Z,64.65
2018-07-05T05:13:13.269Z,64.36
2018-07-05T05:14:13.231Z,64.36
2018-07-05T05:15:13.186Z,64.65
2018-07-05T05:16:13.147Z,64.14
2018-07-05T05:17:13.112Z,63.95
2018-07-05T05:18:13.072Z,64.46
2018-07-05T05:19:13.031Z,64.62
2018-07-05T05:20:12.997Z,64.43
2018-07-05T05:21:12.951Z,64.46
2018-07-05T05:22:12.913Z,64.36
2018-07-05T05:23:12.877Z,64.33
2018-07-05T05:24:12.868Z,64.46
2018-07-05T05:25:12.793Z,64.36
2018-07-05T05:26:12.753Z,64.33
2018-07-05T05:27:12.715Z,64.14
2018-07-05T05:28:12.673Z,64.36
2018-07-05T05:29:12.631Z,64.36
2018-07-05T05:30:12.599Z,64.46
2018-07-05T05:31:12.554Z,64.33
2018-07-05T05:32:12.515Z,64.17
2018-07-05T05:33:12.478Z,63.98
2018-07-05T05:34:12.437Z,64.17
2018-07-05T05:35:12.399Z,64.17
2018-07-05T05:36:12.358Z,64.26
2018-07-05T05:37:12.316Z,64.46
2018-07-05T05:38:12.277Z,64.26
2018-07-05T05:39:12.231Z,64.17
2018-07-05T05:40:12.193Z,64.17
2018-07-05T05:41:12.159Z,64.65
2018-07-05T05:42:12.121Z,64.07
2018-07-05T05:43:12.110Z,64.17
2018-07-05T05:44:12.037Z,64.26
2018-07-05T05:45:11.999Z,64.26
2018-07-05T05:46:11.967Z,64.46
2018-07-05T05:47:11.940Z,64.36
2018-07-05T05:48:11.937Z,64.46
2018-07-05T05:49:11.845Z,64.14
2018-07-05T05:50:11.802Z,64.07
2018-07-05T05:51:11.761Z,64.07
2018-07-05T05:52:11.719Z,64.36
2018-07-05T05:53:11.683Z,64.46
2018-07-05T05:54:11.641Z,64.26
2018-07-05T05:55:11.603Z,64.36
2018-07-05T05:56:11.561Z,64.36
2018-07-05T05:57:11.523Z,64.07
2018-07-05T05:58:11.485Z,64.17
2018-07-05T05:59:11.447Z,64.36
2018-07-05T06:00:11.405Z,64.07
2018-07-05T06:01:11.367Z,64.17
2018-07-05T06:02:11.328Z,63.85
2018-07-05T06:03:11.286Z,64.26
2018-07-05T06:04:11.245Z,64.26
2018-07-05T06:05:11.205Z,63.88
2018-07-05T06:06:11.159Z,64.36
2018-07-05T06:07:11.120Z,64.17
2018-07-05T06:08:11.167Z,64.07
2018-07-05T06:09:11.048Z,64.07
2018-07-05T06:10:10.999Z,64.36
2018-07-05T06:11:10.968Z,64.36
2018-07-05T06:12:10.932Z,64.04
2018-07-05T06:13:10.892Z,64.17
2018-07-05T06:14:10.850Z,63.98
2018-07-05T06:15:10.814Z,64.17
2018-07-05T06:16:10.770Z,64.26
2018-07-05T06:17:10.735Z,63.78
2018-07-05T06:18:10.693Z,64.36
2018-07-05T06:19:10.654Z,64.36
2018-07-05T06:20:10.623Z,63.98
2018-07-05T06:21:10.567Z,63.98
2018-07-05T06:22:10.532Z,63.49
2018-07-05T06:23:10.498Z,64.17
2018-07-05T06:24:10.453Z,63.20
2018-07-05T06:25:10.418Z,62.13
2018-07-05T06:26:10.374Z,61.94
2018-07-05T06:27:10.338Z,61.16
2018-07-05T06:28:10.296Z,60.38
2018-07-05T06:29:10.539Z,59.87
2018-07-05T06:30:10.219Z,59.77
2018-07-05T06:31:10.245Z,59.19
2018-07-05T06:32:10.149Z,59.19
2018-07-05T06:33:10.099Z,59.19
2018-07-05T06:34:10.095Z,59.38
2018-07-05T06:35:10.017Z,59.09
2018-07-05T06:36:09.974Z,58.31
2018-07-05T06:37:09.939Z,58.41
2018-07-05T06:38:09.904Z,57.73
2018-07-05T06:39:09.859Z,57.90
2018-07-05T06:40:09.811Z,57.80
2018-07-05T06:41:09.782Z,58.00
2018-07-05T06:42:09.744Z,57.42
2018-07-05T06:43:09.700Z,57.80
2018-07-05T06:44:09.670Z,57.70
2018-07-05T06:45:09.622Z,58.39
2018-07-05T06:46:09.577Z,59.33
2018-07-05T06:47:09.536Z,59.16
2018-07-05T06:48:09.515Z,59.91
2018-07-05T06:49:09.471Z,59.81
2018-07-05T06:50:09.429Z,60.13
2018-07-05T06:51:09.549Z,60.13
2018-07-05T06:52:09.342Z,60.32
2018-07-05T06:53:09.367Z,60.23
2018-07-05T06:54:09.261Z,60.13
2018-07-05T06:55:09.404Z,60.42
2018-07-05T06:56:09.181Z,60.13
2018-07-05T06:57:09.152Z,60.32
2018-07-05T06:58:09.101Z,59.94
2018-07-05T06:59:09.126Z,60.13
2018-07-05T07:00:09.035Z,60.61
2018-07-05T07:01:08.974Z,60.42
2018-07-05T07:02:08.952Z,60.32
2018-07-05T07:03:08.903Z,60.32
2018-07-05T07:04:08.865Z,60.61
2018-07-05T07:05:08.820Z,60.52
2018-07-05T07:06:08.790Z,60.23
2018-07-05T07:07:08.750Z,60.42
2018-07-05T07:08:08.806Z,60.71
2018-07-05T07:09:08.661Z,60.52
2018-07-05T07:10:08.626Z,60.13
2018-07-05T07:11:08.574Z,60.42
2018-07-05T07:12:08.542Z,60.16
2018-07-05T07:13:08.505Z,60.45
2018-07-05T07:14:08.463Z,60.25
2018-07-05T07:15:08.431Z,60.45
2018-07-05T07:16:08.487Z,60.06
2018-07-05T07:17:08.341Z,60.45
2018-07-05T07:18:08.310Z,60.45
2018-07-05T07:19:08.267Z,60.45
2018-07-05T07:20:08.231Z,60.45
2018-07-05T07:21:08.183Z,60.16
2018-07-05T07:22:08.145Z,60.25
2018-07-05T07:23:08.109Z,60.35
2018-07-05T07:24:08.066Z,60.25
2018-07-05T07:25:08.024Z,60.25
2018-07-05T07:26:07.989Z,60.35
2018-07-05T07:27:07.947Z,60.35
2018-07-05T07:28:07.905Z,60.35
2018-07-05T07:29:07.866Z,60.64
2018-07-05T07:30:07.830Z,60.25
2018-07-05T07:31:07.787Z,60.25
2018-07-05T07:32:07.751Z,60.35
2018-07-05T07:33:07.716Z,59.97
2018-07-05T07:34:07.673Z,60.16
2018-07-05T07:35:07.625Z,60.16
2018-07-05T07:36:07.591Z,60.06
2018-07-05T07:37:07.551Z,60.06
2018-07-05T07:38:07.508Z,60.25
2018-07-05T07:39:07.469Z,60.64
2018-07-05T07:40:07.427Z,60.16
2018-07-05T07:41:07.393Z,59.67
2018-07-05T07:42:07.350Z,59.87
2018-07-05T07:43:07.312Z,59.87
2018-07-05T07:44:07.270Z,60.16
2018-07-05T07:45:07.232Z,59.67
2018-07-05T07:46:07.184Z,59.67
2018-07-05T07:47:07.162Z,59.67
2018-07-05T07:48:07.127Z,59.67
2018-07-05T07:49:07.071Z,59.67
2018-07-05T07:50:07.035Z,59.90
2018-07-05T07:51:06.988Z,60.06
2018-07-05T07:52:06.949Z,60.06
2018-07-05T07:53:06.914Z,59.77
2018-07-05T07:54:06.871Z,60.16
2018-07-05T07:55:06.833Z,59.67
2018-07-05T07:56:06.795Z,59.77
2018-07-05T07:57:06.752Z,59.67
2018-07-05T07:58:06.716Z,59.70
2018-07-05T07:59:06.673Z,59.67
2018-07-05T08:00:06.641Z,59.90
2018-07-05T08:01:06.593Z,59.87
2018-07-05T08:02:06.554Z,59.87
2018-07-05T08:03:06.535Z,60.09
2018-07-05T08:04:06.475Z,60.06
2018-07-05T08:05:06.438Z,60.06
2018-07-05T08:06:06.417Z,59.90
2018-07-05T08:07:06.353Z,59.77
2018-07-05T08:08:06.319Z,59.80
2018-07-05T08:09:06.280Z,60.16
2018-07-05T08:10:06.303Z,59.87
2018-07-05T08:11:06.196Z,60.09
2018-07-05T08:12:06.158Z,59.80
2018-07-05T08:13:06.113Z,59.90
2018-07-05T08:14:06.076Z,60.06
2018-07-05T08:15:06.071Z,59.61
2018-07-05T08:16:05.999Z,59.87
2018-07-05T08:17:05.954Z,60.19
2018-07-05T08:18:05.916Z,59.97
2018-07-05T08:19:05.880Z,59.77
2018-07-05T08:20:05.846Z,59.80
2018-07-05T08:21:05.801Z,60.16
2018-07-05T08:22:05.761Z,60.19
2018-07-05T08:23:05.719Z,60.28
2018-07-05T08:24:05.695Z,59.90
2018-07-05T08:25:05.640Z,60.09
2018-07-05T08:26:05.606Z,60.19
2018-07-05T08:27:05.599Z,60.09
2018-07-05T08:28:05.519Z,60.19
2018-07-05T08:29:05.479Z,60.19
2018-07-05T08:30:05.442Z,59.61
2018-07-05T08:31:05.403Z,59.70
2018-07-05T08:32:05.358Z,60.00
2018-07-05T08:33:05.322Z,59.61
2018-07-05T08:34:05.280Z,59.80
2018-07-05T08:35:05.242Z,59.61
2018-07-05T08:36:05.210Z,59.80
2018-07-05T08:37:05.162Z,59.61
2018-07-05T08:38:05.130Z,59.70
2018-07-05T08:39:05.082Z,60.19
2018-07-05T08:40:05.044Z,60.19
2018-07-05T08:41:05.001Z,59.80
2018-07-05T08:42:04.964Z,59.80
2018-07-05T08:43:04.928Z,59.70
2018-07-05T08:44:04.887Z,59.70
2018-07-05T08:45:04.845Z,59.80
2018-07-05T08:46:04.809Z,59.90
2018-07-05T08:47:04.769Z,59.61
2018-07-05T08:48:04.727Z,59.80
2018-07-05T08:49:04.703Z,59.80
2018-07-05T08:50:04.647Z,59.61
2018-07-05T08:51:04.649Z,59.61
2018-07-05T08:52:04.568Z,59.61
2018-07-05T08:53:04.530Z,59.51
2018-07-05T08:54:04.492Z,59.51
2018-07-05T08:55:04.446Z,59.61
2018-07-05T08:56:04.412Z,59.61
2018-07-05T08:57:04.376Z,59.61
2018-07-05T08:58:04.325Z,59.61
2018-07-05T08:59:04.291Z,59.70
2018-07-05T09:00:04.248Z,59.41
2018-07-05T09:01:04.219Z,59.51
2018-07-05T09:02:04.168Z,59.90
2018-07-05T09:03:04.130Z,59.80
2018-07-05T09:04:04.089Z,59.61
2018-07-05T09:05:04.051Z,59.41
2018-07-05T09:06:04.015Z,59.51
2018-07-05T09:07:03.970Z,59.80
2018-07-05T09:08:03.935Z,59.90
2018-07-05T09:09:03.892Z,59.70
2018-07-05T09:10:03.859Z,59.80
2018-07-05T09:11:03.829Z,59.80
2018-07-05T09:12:03.772Z,59.51
2018-07-05T09:13:03.734Z,59.61
2018-07-05T09:15:03.658Z,59.51
2018-07-05T09:16:03.613Z,59.61
2018-07-05T09:17:03.579Z,59.51
2018-07-05T09:18:03.553Z,59.61
2018-07-05T09:19:03.496Z,59.51
2018-07-05T09:20:03.457Z,59.51
2018-07-05T09:21:03.413Z,59.51
2018-07-05T09:22:03.410Z,59.51
2018-07-05T09:23:03.392Z,59.80
2018-07-05T09:24:03.296Z,59.61
2018-07-05T09:25:03.260Z,59.80
2018-07-05T09:26:03.215Z,59.70
2018-07-05T09:27:03.174Z,59.80
2018-07-05T09:28:03.136Z,59.70
2018-07-05T09:29:03.097Z,59.80
2018-07-05T09:30:03.060Z,59.80
2018-07-05T09:31:03.089Z,59.41
2018-07-05T09:32:02.975Z,59.41
2018-07-05T09:33:02.940Z,59.70
2018-07-05T09:34:02.896Z,59.61
2018-07-05T09:35:02.869Z,59.70
2018-07-05T09:36:02.813Z,59.31
2018-07-05T09:37:02.812Z,59.80
2018-07-05T09:38:02.746Z,59.51
2018-07-05T09:39:02.699Z,59.22
2018-07-05T09:40:02.657Z,59.70
2018-07-05T09:41:02.635Z,59.61
2018-07-05T09:42:02.573Z,59.22
2018-07-05T09:43:02.541Z,58.93
2018-07-05T09:44:02.499Z,58.93
2018-07-05T09:45:02.471Z,59.80
2018-07-05T09:46:02.423Z,59.80
2018-07-05T09:47:02.442Z,59.51
2018-07-05T09:48:02.342Z,59.61
2018-07-05T09:49:02.300Z,59.61
2018-07-05T09:50:02.263Z,59.41
2018-07-05T09:51:02.224Z,59.80
2018-07-05T09:52:02.182Z,59.61
2018-07-05T09:53:02.137Z,59.61
2018-07-05T09:54:02.109Z,58.93
2018-07-05T09:55:02.065Z,59.51
2018-07-05T09:56:02.021Z,59.61
2018-07-05T09:57:01.993Z,59.51
2018-07-05T09:58:01.987Z,58.93
2018-07-05T09:59:01.905Z,58.93
2018-07-05T10:00:01.868Z,59.61
2018-07-05T10:01:01.829Z,59.80
2018-07-05T10:02:01.785Z,59.41
2018-07-05T10:03:01.743Z,59.31
2018-07-05T10:04:01.704Z,59.31
2018-07-05T10:05:01.669Z,59.12
2018-07-05T10:06:01.628Z,59.22
2018-07-05T10:07:01.590Z,59.12
2018-07-05T10:08:01.544Z,58.93
2018-07-05T10:09:01.516Z,59.03
2018-07-05T10:10:01.470Z,59.12
2018-07-05T10:11:01.424Z,59.12
2018-07-05T10:12:01.385Z,59.41
2018-07-05T10:13:01.460Z,59.41
2018-07-05T10:14:01.312Z,59.41
2018-07-05T10:15:01.270Z,59.41
2018-07-05T10:16:01.226Z,59.51
2018-07-05T10:17:01.185Z,59.51
2018-07-05T10:18:01.149Z,59.22
2018-07-05T10:19:01.109Z,59.31
2018-07-05T10:20:01.071Z,59.22
2018-07-05T10:21:01.036Z,59.41
2018-07-05T10:22:00.988Z,59.41
2018-07-05T10:23:00.952Z,59.31
2018-07-05T10:24:00.910Z,59.41
2018-07-05T10:25:00.876Z,59.22
2018-07-05T10:26:00.831Z,59.61
2018-07-05T10:27:00.829Z,59.61
2018-07-05T10:28:00.752Z,58.83
2018-07-05T10:29:00.713Z,58.64
2018-07-05T10:30:00.666Z,58.64
2018-07-05T10:31:00.642Z,58.93
2018-07-05T10:32:00.594Z,59.12
2018-07-05T10:33:00.558Z,58.83
2018-07-05T10:34:00.515Z,58.73
2018-07-05T10:35:00.474Z,58.76
2018-07-05T10:36:00.433Z,58.73
2018-07-05T10:37:00.398Z,58.73
2018-07-05T10:38:00.353Z,58.64
2018-07-05T10:39:00.314Z,58.93
2018-07-05T10:40:00.272Z,58.76
2018-07-05T10:41:00.241Z,58.76
2018-07-05T10:42:00.205Z,58.64
2018-07-05T10:43:00.164Z,58.67
2018-07-05T10:44:00.135Z,58.54
2018-07-05T10:45:00.079Z,58.44
2018-07-05T10:46:00.053Z,58.44
2018-07-05T10:46:59.993Z,58.44
2018-07-05T10:47:59.960Z,58.37
2018-07-05T10:48:59.917Z,58.25
2018-07-05T10:49:59.874Z,58.54
2018-07-05T10:50:59.839Z,58.73
2018-07-05T10:51:59.798Z,58.73
2018-07-05T10:52:59.759Z,58.54
2018-07-05T10:53:59.732Z,58.34
2018-07-05T10:54:59.678Z,58.73
2018-07-05T10:55:59.637Z,58.93
2018-07-05T10:56:59.640Z,58.93
2018-07-05T10:57:59.563Z,58.93
2018-07-05T10:58:59.522Z,58.67
2018-07-05T10:59:59.483Z,58.73
2018-07-05T11:00:59.487Z,58.73
2018-07-05T11:01:59.400Z,58.73
2018-07-05T11:02:59.362Z,58.73
2018-07-05T11:03:59.323Z,58.64
2018-07-05T11:04:59.285Z,58.44
2018-07-05T11:05:59.244Z,58.64
2018-07-05T11:06:59.208Z,58.54
2018-07-05T11:07:59.154Z,58.44
2018-07-05T11:08:59.126Z,58.34
2018-07-05T11:09:59.084Z,58.67
2018-07-05T11:10:59.062Z,58.54
2018-07-05T11:11:59.004Z,58.57
2018-07-05T11:12:58.975Z,58.34
2018-07-05T11:13:58.924Z,58.44
2018-07-05T11:14:58.885Z,58.18
2018-07-05T11:15:58.851Z,58.28
2018-07-05T11:48:44.537Z,58.18
2018-07-05T11:49:44.464Z,58.37
2018-07-05T11:50:44.432Z,58.47
2018-07-05T11:51:44.394Z,58.57
2018-07-05T11:52:44.353Z,58.18
2018-07-05T11:53:44.319Z,58.37
2018-07-05T11:54:44.335Z,58.28
2018-07-05T11:55:44.237Z,58.37
2018-07-05T11:56:44.191Z,58.28
2018-07-05T11:57:44.157Z,57.98
2018-07-05T11:58:44.118Z,57.98
2018-07-05T11:59:44.077Z,58.18
2018-07-05T12:00:44.035Z,58.08
2018-07-05T12:01:43.994Z,58.57
2018-07-05T12:02:44.016Z,58.08
2018-07-05T12:03:43.920Z,58.08
2018-07-05T12:04:43.879Z,58.28
2018-07-05T12:05:43.833Z,58.28
2018-07-05T12:06:43.801Z,58.28
2018-07-05T12:07:43.753Z,58.08
2018-07-05T12:08:43.745Z,58.08
2018-07-05T12:09:43.675Z,58.08
2018-07-05T12:10:43.636Z,57.98
2018-07-05T12:11:43.598Z,58.57
2018-07-05T12:12:43.560Z,58.67
2018-07-05T12:13:43.530Z,58.76
2018-07-05T12:14:43.483Z,58.47
2018-07-05T12:15:43.441Z,58.76
2018-07-05T12:16:43.403Z,58.76
2018-07-05T12:17:43.361Z,58.44
2018-07-05T12:18:43.319Z,58.44
2018-07-05T12:19:43.281Z,58.57
2018-07-05T12:20:43.249Z,58.47
2018-07-05T12:21:43.198Z,58.57
2018-07-05T12:22:43.162Z,58.67
2018-07-05T12:23:43.122Z,58.76
2018-07-05T12:24:43.088Z,58.47
2018-07-05T12:25:43.043Z,58.47
2018-07-05T12:26:43.003Z,58.47
2018-07-05T12:27:42.960Z,58.44
2018-07-05T12:28:42.925Z,58.44
2018-07-05T12:29:42.885Z,58.47
2018-07-05T12:30:42.847Z,58.47
2018-07-05T12:31:42.802Z,58.57
2018-07-05T12:32:42.763Z,58.67
2018-07-05T12:33:42.726Z,58.47
2018-07-05T12:34:42.710Z,58.67
2018-07-05T12:35:42.650Z,58.76
2018-07-05T12:36:42.607Z,58.37
2018-07-05T12:37:42.569Z,58.67
2018-07-05T12:38:42.526Z,58.57
2018-07-05T12:39:42.488Z,58.54
2018-07-05T12:40:42.450Z,58.44
2018-07-05T12:41:42.411Z,58.34
2018-07-05T12:42:42.370Z,58.15
2018-07-05T12:43:42.332Z,58.28
2018-07-05T12:44:42.291Z,58.28
2018-07-05T12:45:42.250Z,58.47
2018-07-05T12:46:42.207Z,58.25
2018-07-05T12:47:42.170Z,58.34
2018-07-05T12:48:42.130Z,58.15
2018-07-05T12:49:42.090Z,58.25
2018-07-05T12:50:42.052Z,58.54
2018-07-05T12:51:42.010Z,58.44
2018-07-05T12:52:41.972Z,58.73
2018-07-05T12:53:41.933Z,58.54
2018-07-05T12:54:41.892Z,58.73
2018-07-05T12:55:41.855Z,58.54
2018-07-05T12:56:41.820Z,58.64
2018-07-05T12:57:41.772Z,58.73
2018-07-05T12:58:41.734Z,58.73
2018-07-05T12:59:41.689Z,58.73
2018-07-05T13:00:41.655Z,58.73
2018-07-05T13:01:41.610Z,58.64
2018-07-05T13:02:41.572Z,58.54
2018-07-05T13:03:41.530Z,58.34
2018-07-05T13:04:41.505Z,58.44
2018-07-05T13:05:41.469Z,58.44
2018-07-05T13:06:41.411Z,58.54
2018-07-05T13:07:41.379Z,58.73
2018-07-05T13:08:41.334Z,58.44
2018-07-05T13:09:41.300Z,58.44
2018-07-05T13:10:41.256Z,58.54
2018-07-05T13:11:41.218Z,58.64
2018-07-05T13:12:41.228Z,58.44
2018-07-05T13:13:41.144Z,58.44
2018-07-05T13:14:41.099Z,58.73
2018-07-05T13:15:41.060Z,58.64
2018-07-05T13:16:41.019Z,58.54
2018-07-05T13:17:40.981Z,58.54
2018-07-05T13:18:40.969Z,58.64
2018-07-05T13:19:40.900Z,58.73
2018-07-05T13:20:40.862Z,58.54
2018-07-05T13:21:40.820Z,58.73
2018-07-05T13:22:40.781Z,58.73
2018-07-05T13:23:40.740Z,58.64
2018-07-05T13:24:40.708Z,58.73
2018-07-05T13:25:40.660Z,58.73
2018-07-05T13:26:40.622Z,58.73